Time,TemperatureF,DewpointF,PressureIn,WindDirection,WindDirectionDegrees,WindSpeedMPH,WindSpeedGustMPH,Humidity,HourlyPrecipIn,Conditions,Clouds,dailyrainin,SoftwareType,DateUTC
2015-03-03 00:04:00,36.0,28.9,29.03,SSE,157,0.0,1.7,76,0.00,,,0.02,WUHU21636XXSP,2015-03-03 05:04:00,
2015-03-03 00:09:00,36.0,28.9,29.02,SSE,157,1.5,1.5,76,0.00,,,0.02,WUHU21636XXSP,2015-03-03 05:09:00,
2015-03-03 00:14:00,36.0,28.9,29.02,SSE,157,0.0,1.5,76,0.00,,,0.02,WUHU21636XXSP,2015-03-03 05:14:00,
2015-03-03 00:19:00,36.0,28.9,29.01,SSE,157,0.0,1.5,76,0.00,,,0.02,WUHU21636XXSP,2015-03-03 05:19:00,
2015-03-03 00:24:00,36.0,28.9,29.00,SSE,157,0.0,0.0,76,0.00,,,0.02,WUHU21636XXSP,2015-03-03 05:24:00,
2015-03-03 00:29:00,36.0,28.9,29.01,SSE,157,0.0,0.0,77,0.00,,,0.02,WUHU21636XXSP,2015-03-03 05:29:00,
2015-03-03 00:34:00,36.0,28.9,29.00,SSE,157,0.0,0.0,77,0.00,,,0.02,WUHU21636XXSP,2015-03-03 05:34:00,
2015-03-03 00:39:00,36.0,28.9,29.00,SSE,157,0.0,0.0,77,0.00,,,0.02,WUHU21636XXSP,2015-03-03 05:39:00,
2015-03-03 00:44:00,36.0,28.9,29.00,SSE,157,0.0,0.0,77,0.00,,,0.02,WUHU21636XXSP,2015-03-03 05:44:00,
2015-03-03 00:49:00,36.0,28.9,29.00,SSE,157,0.0,0.0,77,0.00,,,0.02,WUHU21636XXSP,2015-03-03 05:49:00,
2015-03-03 00:54:00,36.1,29.5,29.00,SSE,157,0.0,0.0,77,0.00,,,0.02,WUHU21636XXSP,2015-03-03 05:54:00,
2015-03-03 00:59:00,36.1,29.5,28.99,SSE,157,0.0,0.0,77,0.00,,,0.02,WUHU21636XXSP,2015-03-03 05:59:00,
2015-03-03 01:04:00,36.1,29.5,28.99,SSE,157,0.0,0.0,78,0.00,,,0.00,WUHU21636XXSP,2015-03-03 06:04:00,
2015-03-03 01:09:00,36.1,29.5,28.99,SSE,157,0.0,0.0,78,0.00,,,0.00,WUHU21636XXSP,2015-03-03 06:09:00,
2015-03-03 01:14:00,36.1,29.5,28.98,SSE,157,0.0,0.0,78,0.00,,,0.00,WUHU21636XXSP,2015-03-03 06:14:00,
2015-03-03 01:19:00,36.1,29.5,28.98,SSE,157,0.0,0.0,78,0.00,,,0.00,WUHU21636XXSP,2015-03-03 06:19:00,
2015-03-03 01:24:00,36.3,30.0,28.97,SSE,157,0.0,0.0,78,0.00,,,0.00,WUHU21636XXSP,2015-03-03 06:24:00,
2015-03-03 01:29:00,36.3,30.0,28.97,SSE,157,0.0,0.0,78,0.00,,,0.00,WUHU21636XXSP,2015-03-03 06:29:00,
2015-03-03 01:34:00,36.3,30.4,28.97,SSE,157,2.4,7.8,79,0.00,,,0.00,WUHU21636XXSP,2015-03-03 06:34:00,
2015-03-03 01:39:00,36.5,30.6,28.97,SSE,157,0.0,7.8,79,0.00,,,0.00,WUHU21636XXSP,2015-03-03 06:39:00,
2015-03-03 01:44:00,36.5,30.6,28.95,SSE,157,0.0,2.4,79,0.00,,,0.00,WUHU21636XXSP,2015-03-03 06:44:00,
2015-03-03 01:49:00,36.3,30.4,28.97,West,270,0.8,0.8,79,0.00,,,0.00,WUHU21636XXSP,2015-03-03 06:49:00,
2015-03-03 01:54:00,36.5,30.6,28.97,WSW,247,0.0,0.8,79,0.00,,,0.00,WUHU21636XXSP,2015-03-03 06:54:00,
2015-03-03 01:59:00,36.5,30.6,28.96,SW,225,0.0,0.8,80,0.00,,,0.00,WUHU21636XXSP,2015-03-03 06:59:00,
2015-03-03 02:04:00,36.5,30.6,28.95,SSE,157,1.1,1.1,80,0.00,,,0.00,WUHU21636XXSP,2015-03-03 07:04:00,
2015-03-03 02:09:00,36.5,30.9,28.95,SSE,157,6.0,7.3,80,0.00,,,0.00,WUHU21636XXSP,2015-03-03 07:09:00,
2015-03-03 02:14:00,36.5,30.9,28.95,SSE,157,0.0,7.3,81,0.00,,,0.00,WUHU21636XXSP,2015-03-03 07:14:00,
2015-03-03 02:19:00,36.5,30.9,28.95,SSE,157,0.0,6.0,81,0.00,,,0.00,WUHU21636XXSP,2015-03-03 07:19:00,
2015-03-03 02:24:00,36.5,30.9,28.95,SSE,157,0.0,0.0,81,0.00,,,0.00,WUHU21636XXSP,2015-03-03 07:24:00,
2015-03-03 02:29:00,36.7,31.3,28.94,SSE,157,0.0,0.0,81,0.00,,,0.00,WUHU21636XXSP,2015-03-03 07:29:00,
2015-03-03 02:34:00,36.7,31.3,28.94,SSE,157,0.0,1.7,81,0.00,,,0.00,WUHU21636XXSP,2015-03-03 07:34:00,
2015-03-03 02:39:00,36.5,31.1,28.94,SSE,157,0.0,2.9,81,0.00,,,0.00,WUHU21636XXSP,2015-03-03 07:39:00,
2015-03-03 02:44:00,36.5,31.1,28.94,SSE,157,2.6,2.9,81,0.00,,,0.00,WUHU21636XXSP,2015-03-03 07:44:00,
2015-03-03 02:49:00,36.5,31.1,28.94,SSE,157,0.0,2.6,81,0.00,,,0.00,WUHU21636XXSP,2015-03-03 07:49:00,
2015-03-03 02:54:00,36.7,31.3,28.93,SSE,157,0.0,2.6,81,0.00,,,0.00,WUHU21636XXSP,2015-03-03 07:54:00,
2015-03-03 02:59:00,36.7,31.3,28.92,SSE,157,0.0,1.7,81,0.00,,,0.00,WUHU21636XXSP,2015-03-03 07:59:00,
2015-03-03 03:04:00,36.7,31.3,28.93,SSE,157,0.0,6.9,81,0.00,,,0.00,WUHU21636XXSP,2015-03-03 08:04:00,
2015-03-03 03:09:00,36.7,31.3,28.92,SSE,157,0.0,6.9,81,0.00,,,0.00,WUHU21636XXSP,2015-03-03 08:09:00,
2015-03-03 03:14:00,36.7,31.3,28.92,SSE,157,1.3,1.3,81,0.00,,,0.00,WUHU21636XXSP,2015-03-03 08:14:00,
2015-03-03 03:19:00,36.7,31.3,28.92,SSE,157,0.0,2.9,82,0.00,,,0.00,WUHU21636XXSP,2015-03-03 08:19:00,
2015-03-03 03:24:00,36.9,31.8,28.92,SSE,157,0.8,2.9,82,0.00,,,0.00,WUHU21636XXSP,2015-03-03 08:24:00,
2015-03-03 03:29:00,37.0,32.0,28.91,SSE,157,0.0,0.8,82,0.00,,,0.00,WUHU21636XXSP,2015-03-03 08:29:00,
2015-03-03 03:34:00,37.0,32.0,28.91,SSE,157,0.0,0.8,82,0.00,,,0.00,WUHU21636XXSP,2015-03-03 08:34:00,
2015-03-03 03:39:00,37.0,32.0,28.91,SSE,157,0.0,0.0,82,0.00,,,0.00,WUHU21636XXSP,2015-03-03 08:39:00,
2015-03-03 03:44:00,37.0,32.0,28.91,SSE,157,0.0,1.3,82,0.00,,,0.00,WUHU21636XXSP,2015-03-03 08:44:00,
2015-03-03 03:49:00,37.0,32.0,28.90,SSE,157,0.0,1.3,82,0.00,,,0.00,WUHU21636XXSP,2015-03-03 08:49:00,
2015-03-03 03:54:00,37.0,32.0,28.91,SSE,157,0.0,0.0,82,0.00,,,0.00,WUHU21636XXSP,2015-03-03 08:54:00,
2015-03-03 03:59:00,36.9,31.8,28.91,SSE,157,0.0,0.0,82,0.00,,,0.00,WUHU21636XXSP,2015-03-03 08:59:00,
2015-03-03 04:04:00,36.7,31.3,28.90,SSE,157,0.0,0.0,81,0.00,,,0.00,WUHU21636XXSP,2015-03-03 09:04:00,
2015-03-03 04:09:00,36.7,31.3,28.89,SSE,157,0.0,0.0,82,0.00,,,0.00,WUHU21636XXSP,2015-03-03 09:09:00,
2015-03-03 04:14:00,36.7,31.3,28.89,SSE,157,0.0,0.0,82,0.00,,,0.00,WUHU21636XXSP,2015-03-03 09:14:00,
2015-03-03 04:19:00,36.7,31.3,28.89,SSE,157,0.0,0.0,83,0.00,,,0.00,WUHU21636XXSP,2015-03-03 09:19:00,
2015-03-03 04:24:00,36.9,32.0,28.89,SSE,157,0.8,5.1,83,0.00,,,0.00,WUHU21636XXSP,2015-03-03 09:24:00,
2015-03-03 04:29:00,37.0,32.5,28.88,SSE,157,0.0,5.1,84,0.00,,,0.00,WUHU21636XXSP,2015-03-03 09:29:00,
2015-03-03 04:34:00,37.0,32.5,28.88,SSE,157,0.0,1.7,84,0.00,,,0.00,WUHU21636XXSP,2015-03-03 09:34:00,
2015-03-03 04:39:00,37.0,32.5,28.88,SSE,157,0.0,0.0,84,0.00,,,0.00,WUHU21636XXSP,2015-03-03 09:39:00,
2015-03-03 04:44:00,37.0,32.5,28.88,SSE,157,0.0,0.0,83,0.00,,,0.00,WUHU21636XXSP,2015-03-03 09:44:00,
2015-03-03 04:49:00,37.2,32.7,28.88,SSE,157,0.0,0.0,84,0.00,,,0.00,WUHU21636XXSP,2015-03-03 09:49:00,
2015-03-03 04:54:00,37.2,32.7,28.87,SSE,157,0.0,0.0,84,0.00,,,0.00,WUHU21636XXSP,2015-03-03 09:54:00,
2015-03-03 04:59:00,37.6,33.1,28.86,SSE,157,0.0,0.0,84,0.00,,,0.00,WUHU21636XXSP,2015-03-03 09:59:00,
2015-03-03 05:04:00,37.6,33.1,28.87,SSE,157,0.0,0.0,84,0.00,,,0.00,WUHU21636XXSP,2015-03-03 10:04:00,
2015-03-03 05:09:00,37.8,33.3,28.86,SW,225,0.0,0.0,84,0.00,,,0.00,WUHU21636XXSP,2015-03-03 10:09:00,
2015-03-03 05:14:00,37.9,33.8,28.86,SW,225,0.0,0.0,85,0.00,,,0.00,WUHU21636XXSP,2015-03-03 10:14:00,
2015-03-03 05:19:00,38.3,34.3,28.86,SSW,202,0.6,4.4,86,0.00,,,0.00,WUHU21636XXSP,2015-03-03 10:19:00,
2015-03-03 05:24:00,38.5,34.5,28.85,SE,135,0.0,4.4,86,0.00,,,0.00,WUHU21636XXSP,2015-03-03 10:24:00,
2015-03-03 05:29:00,38.8,34.9,28.85,SSW,202,0.0,3.8,87,0.00,,,0.00,WUHU21636XXSP,2015-03-03 10:29:00,
2015-03-03 05:34:00,38.8,34.9,28.86,WSW,247,0.0,2.0,87,0.00,,,0.00,WUHU21636XXSP,2015-03-03 10:34:00,
2015-03-03 05:39:00,39.2,35.6,28.86,South,180,0.0,0.0,87,0.00,,,0.00,WUHU21636XXSP,2015-03-03 10:39:00,
2015-03-03 05:44:00,39.4,35.8,28.86,SSW,202,0.0,0.0,87,0.00,,,0.00,WUHU21636XXSP,2015-03-03 10:44:00,
2015-03-03 05:49:00,39.4,35.8,28.86,SSE,157,0.0,0.0,87,0.00,,,0.00,WUHU21636XXSP,2015-03-03 10:49:00,
2015-03-03 05:54:00,39.6,36.0,28.86,SSW,202,0.0,0.0,87,0.00,,,0.00,WUHU21636XXSP,2015-03-03 10:54:00,
2015-03-03 05:59:00,39.7,36.3,28.86,SSW,202,0.0,0.0,88,0.00,,,0.00,WUHU21636XXSP,2015-03-03 10:59:00,
2015-03-03 06:04:00,39.7,36.3,28.86,WNW,292,0.0,0.0,88,0.00,,,0.00,WUHU21636XXSP,2015-03-03 11:04:00,
2015-03-03 06:09:00,39.7,36.3,28.86,West,270,0.0,0.0,88,0.00,,,0.00,WUHU21636XXSP,2015-03-03 11:09:00,
2015-03-03 06:14:00,39.7,36.3,28.85,SSW,202,0.0,0.0,88,0.00,,,0.00,WUHU21636XXSP,2015-03-03 11:14:00,
2015-03-03 06:19:00,39.7,36.3,28.86,SW,225,0.0,0.0,88,0.00,,,0.00,WUHU21636XXSP,2015-03-03 11:19:00,
2015-03-03 06:24:00,39.7,36.3,28.86,SSW,202,0.0,0.0,88,0.00,,,0.00,WUHU21636XXSP,2015-03-03 11:24:00,
2015-03-03 06:29:00,39.7,36.3,28.86,South,180,0.0,0.0,88,0.00,,,0.00,WUHU21636XXSP,2015-03-03 11:29:00,
2015-03-03 06:34:00,39.7,36.3,28.86,WSW,247,0.0,0.0,88,0.00,,,0.00,WUHU21636XXSP,2015-03-03 11:34:00,
2015-03-03 06:39:00,39.7,36.3,28.86,WSW,247,0.0,0.0,88,0.00,,,0.00,WUHU21636XXSP,2015-03-03 11:39:00,
2015-03-03 06:44:00,39.7,36.3,28.87,WSW,247,0.0,0.0,88,0.00,,,0.00,WUHU21636XXSP,2015-03-03 11:44:00,
2015-03-03 06:49:00,39.6,36.1,28.87,SW,225,0.0,0.0,88,0.00,,,0.00,WUHU21636XXSP,2015-03-03 11:49:00,
2015-03-03 06:54:00,39.7,36.3,28.86,SSW,202,0.0,0.0,88,0.00,,,0.00,WUHU21636XXSP,2015-03-03 11:54:00,
2015-03-03 06:59:00,39.9,36.5,28.86,SSW,202,0.0,11.8,88,0.00,,,0.00,WUHU21636XXSP,2015-03-03 11:59:00,
2015-03-03 07:04:00,39.9,36.5,28.86,WSW,247,0.0,11.8,88,0.00,,,0.00,WUHU21636XXSP,2015-03-03 12:04:00,
2015-03-03 07:09:00,40.3,37.2,28.86,SW,225,0.0,0.0,89,0.00,,,0.00,WUHU21636XXSP,2015-03-03 12:09:00,
2015-03-03 07:14:00,40.5,37.4,28.87,WSW,247,0.0,0.0,89,0.00,,,0.00,WUHU21636XXSP,2015-03-03 12:14:00,
2015-03-03 07:19:00,40.8,37.8,28.87,WSW,247,1.1,1.1,89,0.00,,,0.00,WUHU21636XXSP,2015-03-03 12:19:00,
2015-03-03 07:24:00,41.2,38.1,28.87,SW,225,1.1,15.2,89,0.00,,,0.00,WUHU21636XXSP,2015-03-03 12:24:00,
2015-03-03 07:29:00,41.2,38.1,28.87,SW,225,0.0,15.2,89,0.00,,,0.00,WUHU21636XXSP,2015-03-03 12:29:00,
2015-03-03 07:34:00,41.2,38.1,28.86,SW,225,0.0,11.6,89,0.00,,,0.00,WUHU21636XXSP,2015-03-03 12:34:00,
2015-03-03 07:39:00,41.2,38.1,28.86,WSW,247,0.0,0.0,89,0.00,,,0.00,WUHU21636XXSP,2015-03-03 12:39:00,
2015-03-03 07:44:00,41.2,38.1,28.86,SW,225,0.2,0.2,89,0.00,,,0.00,WUHU21636XXSP,2015-03-03 12:44:00,
2015-03-03 07:49:00,41.2,38.1,28.86,WSW,247,2.0,12.7,89,0.00,,,0.00,WUHU21636XXSP,2015-03-03 12:49:00,
2015-03-03 07:54:00,41.2,38.1,28.87,WSW,247,1.3,12.7,89,0.00,,,0.00,WUHU21636XXSP,2015-03-03 12:54:00,
2015-03-03 07:59:00,41.2,38.1,28.87,SSW,202,3.8,10.5,89,0.00,,,0.00,WUHU21636XXSP,2015-03-03 12:59:00,
2015-03-03 08:04:00,41.2,38.1,28.87,WSW,247,0.0,3.8,89,0.00,,,0.00,WUHU21636XXSP,2015-03-03 13:04:00,
2015-03-03 08:09:00,41.2,38.1,28.86,SW,225,0.0,3.8,89,0.00,,,0.00,WUHU21636XXSP,2015-03-03 13:09:00,
2015-03-03 08:14:00,41.2,38.1,28.86,South,180,0.0,11.4,89,0.00,,,0.00,WUHU21636XXSP,2015-03-03 13:14:00,
2015-03-03 08:19:00,41.2,38.1,28.86,SSW,202,3.3,11.4,89,0.00,,,0.00,WUHU21636XXSP,2015-03-03 13:19:00,
2015-03-03 08:24:00,41.2,38.1,28.86,WSW,247,5.8,8.5,89,0.00,,,0.00,WUHU21636XXSP,2015-03-03 13:24:00,
2015-03-03 08:29:00,41.5,38.8,28.86,SSW,202,0.2,14.0,90,0.00,,,0.00,WUHU21636XXSP,2015-03-03 13:29:00,
2015-03-03 08:34:00,41.5,38.8,28.86,SSW,202,1.1,14.0,90,0.00,,,0.00,WUHU21636XXSP,2015-03-03 13:34:00,
2015-03-03 08:39:00,41.7,39.0,28.86,SSE,157,3.8,7.3,90,0.00,,,0.00,WUHU21636XXSP,2015-03-03 13:39:00,
2015-03-03 08:44:00,41.7,39.0,28.85,SSE,157,0.0,6.7,90,0.00,,,0.00,WUHU21636XXSP,2015-03-03 13:44:00,
2015-03-03 08:49:00,41.9,38.8,28.86,SSW,202,0.6,7.6,89,0.00,,,0.00,WUHU21636XXSP,2015-03-03 13:49:00,
2015-03-03 08:54:00,42.1,39.0,28.85,SSW,202,6.0,7.8,89,0.00,,,0.00,WUHU21636XXSP,2015-03-03 13:54:00,
2015-03-03 08:59:00,42.3,39.2,28.85,SW,225,7.8,10.0,89,0.00,,,0.00,WUHU21636XXSP,2015-03-03 13:59:00,
2015-03-03 09:04:00,42.4,39.4,28.85,SW,225,7.3,16.1,89,0.00,,,0.00,WUHU21636XXSP,2015-03-03 14:04:00,
2015-03-03 09:09:00,42.4,39.4,28.85,South,180,1.3,19.0,89,0.00,,,0.00,WUHU21636XXSP,2015-03-03 14:09:00,
2015-03-03 09:14:00,42.4,39.4,28.85,SSW,202,10.9,19.0,89,0.00,,,0.00,WUHU21636XXSP,2015-03-03 14:14:00,
2015-03-03 09:19:00,42.6,39.6,28.85,SSE,157,0.0,17.0,89,0.00,,,0.00,WUHU21636XXSP,2015-03-03 14:19:00,
2015-03-03 09:24:00,42.6,39.6,28.85,SSE,157,0.0,10.9,89,0.00,,,0.00,WUHU21636XXSP,2015-03-03 14:24:00,
2015-03-03 09:29:00,43.0,39.9,28.86,SW,225,13.4,20.5,89,0.00,,,0.00,WUHU21636XXSP,2015-03-03 14:29:00,
2015-03-03 09:34:00,43.2,40.1,28.85,SSW,202,6.2,20.5,89,0.00,,,0.00,WUHU21636XXSP,2015-03-03 14:34:00,
2015-03-03 09:39:00,43.3,40.3,28.85,South,180,3.5,17.0,89,0.00,,,0.00,WUHU21636XXSP,2015-03-03 14:39:00,
2015-03-03 09:44:00,43.3,40.3,28.85,SSW,202,4.6,19.6,89,0.00,,,0.00,WUHU21636XXSP,2015-03-03 14:44:00,
2015-03-03 09:49:00,43.5,40.5,28.84,SSW,202,4.6,19.6,89,0.00,,,0.00,WUHU21636XXSP,2015-03-03 14:49:00,
2015-03-03 09:54:00,43.7,40.6,28.85,West,270,6.9,19.0,89,0.00,,,0.00,WUHU21636XXSP,2015-03-03 14:54:00,
2015-03-03 09:59:00,43.9,40.8,28.85,SSW,202,4.0,19.0,89,0.00,,,0.00,WUHU21636XXSP,2015-03-03 14:59:00,
2015-03-03 10:04:00,43.9,40.8,28.85,WSW,247,6.7,18.3,89,0.00,,,0.00,WUHU21636XXSP,2015-03-03 15:04:00,
2015-03-03 10:09:00,43.9,40.8,28.85,South,180,10.7,18.3,89,0.00,,,0.00,WUHU21636XXSP,2015-03-03 15:09:00,
2015-03-03 10:14:00,44.2,41.2,28.86,South,180,5.8,18.3,89,0.00,,,0.00,WUHU21636XXSP,2015-03-03 15:14:00,
2015-03-03 10:19:00,44.2,41.2,28.86,South,180,6.0,17.6,89,0.00,,,0.00,WUHU21636XXSP,2015-03-03 15:19:00,
2015-03-03 10:24:00,44.2,41.2,28.86,West,270,6.4,17.8,89,0.00,,,0.00,WUHU21636XXSP,2015-03-03 15:24:00,
2015-03-03 10:29:00,44.2,41.2,28.85,SW,225,8.5,17.8,89,0.00,,,0.00,WUHU21636XXSP,2015-03-03 15:29:00,
2015-03-03 10:34:00,44.2,41.2,28.85,WSW,247,5.1,13.1,89,0.00,,,0.00,WUHU21636XXSP,2015-03-03 15:34:00,
2015-03-03 10:39:00,44.2,41.2,28.85,WSW,247,8.0,16.1,89,0.00,,,0.00,WUHU21636XXSP,2015-03-03 15:39:00,
2015-03-03 10:44:00,44.2,41.2,28.85,SW,225,3.3,18.7,89,0.00,,,0.00,WUHU21636XXSP,2015-03-03 15:44:00,
2015-03-03 10:49:00,44.4,41.4,28.85,SW,225,7.6,18.7,89,0.00,,,0.00,WUHU21636XXSP,2015-03-03 15:49:00,
2015-03-03 10:54:00,44.4,41.4,28.84,South,180,4.6,17.0,89,0.00,,,0.00,WUHU21636XXSP,2015-03-03 15:54:00,
2015-03-03 10:59:00,44.8,41.7,28.85,WSW,247,2.2,21.2,89,0.00,,,0.00,WUHU21636XXSP,2015-03-03 15:59:00,
2015-03-03 11:04:00,45.0,41.9,28.85,SSW,202,4.6,21.2,89,0.00,,,0.00,WUHU21636XXSP,2015-03-03 16:04:00,
2015-03-03 11:09:00,45.0,41.9,28.85,West,270,0.0,9.1,89,0.00,,,0.00,WUHU21636XXSP,2015-03-03 16:09:00,
2015-03-03 11:14:00,45.1,42.1,28.85,WSW,247,4.6,15.2,89,0.00,,,0.00,WUHU21636XXSP,2015-03-03 16:14:00,
2015-03-03 11:19:00,45.3,42.3,28.86,WSW,247,6.7,19.6,89,0.00,,,0.00,WUHU21636XXSP,2015-03-03 16:19:00,
2015-03-03 11:24:00,24.1,14.7,29.82,North,0,0.0,0.0,67,0.00,CLR,,0.00,WeatherDisplay:10.37,2015-03-03 16:24:00,
2015-03-03 11:29:00,45.5,42.4,28.86,SSW,202,5.8,13.1,89,0.00,,,0.00,WUHU21636XXSP,2015-03-03 16:29:00,
2015-03-03 11:34:00,45.7,42.6,28.86,WSW,247,4.6,13.1,89,0.00,,,0.00,WUHU21636XXSP,2015-03-03 16:34:00,
2015-03-03 11:39:00,45.7,42.6,28.85,South,180,2.9,20.1,89,0.00,,,0.00,WUHU21636XXSP,2015-03-03 16:39:00,
2015-03-03 11:44:00,46.0,42.6,28.85,West,270,7.1,22.5,88,0.00,,,0.00,WUHU21636XXSP,2015-03-03 16:44:00,
2015-03-03 11:49:00,46.0,42.6,28.84,SW,225,8.7,22.5,88,0.00,,,0.00,WUHU21636XXSP,2015-03-03 16:49:00,
2015-03-03 11:54:00,46.0,42.6,28.85,WNW,292,8.2,24.6,88,0.00,,,0.00,WUHU21636XXSP,2015-03-03 16:54:00,
2015-03-03 11:59:00,46.0,42.3,28.84,SSW,202,0.2,24.6,87,0.00,,,0.00,WUHU21636XXSP,2015-03-03 16:59:00,
2015-03-03 12:04:00,46.2,42.4,28.85,WSW,247,4.9,12.7,87,0.00,,,0.00,WUHU21636XXSP,2015-03-03 17:04:00,
2015-03-03 12:09:00,46.2,42.4,28.84,WSW,247,0.2,15.2,87,0.00,,,0.00,WUHU21636XXSP,2015-03-03 17:09:00,
2015-03-03 12:14:00,46.6,42.8,28.84,West,270,5.8,15.8,87,0.00,,,0.00,WUHU21636XXSP,2015-03-03 17:14:00,
2015-03-03 12:19:00,46.6,42.8,28.84,West,270,6.9,18.1,87,0.00,,,0.00,WUHU21636XXSP,2015-03-03 17:19:00,
2015-03-03 12:24:00,46.8,43.0,28.84,SW,225,6.2,20.5,87,0.00,,,0.00,WUHU21636XXSP,2015-03-03 17:24:00,
2015-03-03 12:29:00,46.9,43.2,28.84,SSW,202,9.8,20.5,87,0.00,,,0.00,WUHU21636XXSP,2015-03-03 17:29:00,
2015-03-03 12:34:00,47.1,43.3,28.83,SSW,202,8.7,16.1,87,0.00,,,0.00,WUHU21636XXSP,2015-03-03 17:34:00,
2015-03-03 12:39:00,47.1,43.3,28.84,SSW,202,4.6,21.0,87,0.00,,,0.00,WUHU21636XXSP,2015-03-03 17:39:00,
2015-03-03 12:44:00,46.9,43.2,28.84,SW,225,9.1,21.0,87,0.00,,,0.00,WUHU21636XXSP,2015-03-03 17:44:00,
2015-03-03 12:49:00,46.9,43.2,28.84,WSW,247,0.8,17.6,87,0.00,,,0.00,WUHU21636XXSP,2015-03-03 17:49:00,
2015-03-03 12:54:00,46.9,43.2,28.83,SSW,202,1.1,9.1,87,0.00,,,0.00,WUHU21636XXSP,2015-03-03 17:54:00,
2015-03-03 12:59:00,47.1,43.3,28.83,SSW,202,6.2,12.5,87,0.00,,,0.00,WUHU21636XXSP,2015-03-03 17:59:00,
2015-03-03 13:04:00,47.3,43.5,28.82,WSW,247,6.2,12.5,87,0.00,,,0.00,WUHU21636XXSP,2015-03-03 18:04:00,
2015-03-03 13:09:00,47.8,43.7,28.82,SSW,202,11.6,23.4,86,0.00,,,0.00,WUHU21636XXSP,2015-03-03 18:09:00,
2015-03-03 13:14:00,47.8,44.1,28.82,SW,225,0.0,23.4,87,0.00,,,0.00,WUHU21636XXSP,2015-03-03 18:14:00,
2015-03-03 13:19:00,48.0,44.2,28.83,SW,225,6.7,19.0,87,0.00,,,0.00,WUHU21636XXSP,2015-03-03 18:19:00,
2015-03-03 13:24:00,48.0,43.9,28.82,SSW,202,14.0,20.8,86,0.00,,,0.00,WUHU21636XXSP,2015-03-03 18:24:00,
2015-03-03 13:29:00,48.0,43.9,28.81,SW,225,9.3,20.8,86,0.00,,,0.00,WUHU21636XXSP,2015-03-03 18:29:00,
2015-03-03 13:34:00,48.4,44.6,28.82,SSW,202,0.0,17.0,87,0.00,,,0.00,WUHU21636XXSP,2015-03-03 18:34:00,
2015-03-03 13:39:00,48.7,44.6,28.81,SSW,202,10.7,17.0,86,0.00,,,0.00,WUHU21636XXSP,2015-03-03 18:39:00,
2015-03-03 13:44:00,48.9,44.8,28.80,SW,225,1.7,16.5,86,0.00,,,0.00,WUHU21636XXSP,2015-03-03 18:44:00,
2015-03-03 13:49:00,49.1,45.0,28.80,WSW,247,3.1,21.4,86,0.00,,,0.00,WUHU21636XXSP,2015-03-03 18:49:00,
2015-03-03 13:54:00,49.6,45.5,28.80,WSW,247,3.8,21.4,86,0.00,,,0.00,WUHU21636XXSP,2015-03-03 18:54:00,
2015-03-03 13:59:00,50.0,45.5,28.80,SW,225,0.0,14.5,85,0.00,,,0.00,WUHU21636XXSP,2015-03-03 18:59:00,
2015-03-03 14:04:00,50.2,45.3,28.79,WSW,247,6.7,12.5,84,0.00,,,0.00,WUHU21636XXSP,2015-03-03 19:04:00,
2015-03-03 14:09:00,50.2,45.3,28.79,SW,225,0.2,12.5,85,0.00,,,0.00,WUHU21636XXSP,2015-03-03 19:09:00,
2015-03-03 14:14:00,50.2,45.7,28.79,WSW,247,7.3,8.7,85,0.00,,,0.00,WUHU21636XXSP,2015-03-03 19:14:00,
2015-03-03 14:19:00,50.5,45.7,28.79,SW,225,10.5,14.9,84,0.00,,,0.00,WUHU21636XXSP,2015-03-03 19:19:00,
2015-03-03 14:24:00,50.7,45.9,28.79,WSW,247,5.8,14.9,84,0.00,,,0.00,WUHU21636XXSP,2015-03-03 19:24:00,
2015-03-03 14:29:00,50.7,45.9,28.79,West,270,0.0,12.0,84,0.00,,,0.00,WUHU21636XXSP,2015-03-03 19:29:00,
2015-03-03 14:34:00,50.7,45.9,28.78,SW,225,2.0,5.8,84,0.00,,,0.00,WUHU21636XXSP,2015-03-03 19:34:00,
2015-03-03 14:39:00,50.9,46.0,28.78,SW,225,0.0,2.0,83,0.00,,,0.00,WUHU21636XXSP,2015-03-03 19:39:00,
2015-03-03 14:44:00,50.9,46.0,28.78,West,270,2.0,8.0,84,0.00,,,0.00,WUHU21636XXSP,2015-03-03 19:44:00,
2015-03-03 14:49:00,50.5,45.5,28.78,West,270,1.7,8.0,83,0.00,,,0.00,WUHU21636XXSP,2015-03-03 19:49:00,
2015-03-03 14:54:00,50.4,45.5,28.78,WSW,247,4.9,11.8,84,0.00,,,0.00,WUHU21636XXSP,2015-03-03 19:54:00,
2015-03-03 14:59:00,50.2,45.3,28.78,SW,225,1.3,11.8,84,0.00,,,0.00,WUHU21636XXSP,2015-03-03 19:59:00,
2015-03-03 15:04:00,50.0,45.1,28.79,West,270,0.0,4.9,84,0.00,,,0.00,WUHU21636XXSP,2015-03-03 20:04:00,
2015-03-03 15:09:00,49.8,45.0,28.79,SSW,202,2.6,2.6,84,0.00,,,0.00,WUHU21636XXSP,2015-03-03 20:09:00,
2015-03-03 15:14:00,49.6,44.8,28.78,West,270,3.3,3.3,84,0.00,,,0.00,WUHU21636XXSP,2015-03-03 20:14:00,
2015-03-03 15:19:00,49.5,45.0,28.78,West,270,8.2,12.5,85,0.00,,,0.00,WUHU21636XXSP,2015-03-03 20:19:00,
2015-03-03 15:24:00,49.6,45.1,28.77,West,270,0.0,12.5,85,0.00,,,0.00,WUHU21636XXSP,2015-03-03 20:24:00,
2015-03-03 15:29:00,49.6,45.1,28.77,WNW,292,4.0,8.2,85,0.00,,,0.00,WUHU21636XXSP,2015-03-03 20:29:00,
2015-03-03 15:34:00,49.6,45.1,28.76,West,270,2.2,10.7,85,0.00,,,0.00,WUHU21636XXSP,2015-03-03 20:34:00,
2015-03-03 15:39:00,49.6,45.1,28.77,WNW,292,0.8,10.7,85,0.00,,,0.00,WUHU21636XXSP,2015-03-03 20:39:00,
2015-03-03 15:44:00,49.6,45.1,28.76,SW,225,0.0,12.3,85,0.00,,,0.00,WUHU21636XXSP,2015-03-03 20:44:00,
2015-03-03 15:49:00,49.6,45.1,28.77,SW,225,1.7,12.3,85,0.00,,,0.00,WUHU21636XXSP,2015-03-03 20:49:00,
2015-03-03 15:54:00,49.6,45.1,28.77,SW,225,3.3,9.3,85,0.00,,,0.00,WUHU21636XXSP,2015-03-03 20:54:00,
2015-03-03 15:59:00,49.8,45.3,28.76,WSW,247,6.4,10.0,85,0.00,,,0.00,WUHU21636XXSP,2015-03-03 20:59:00,
2015-03-03 16:04:00,49.6,45.1,28.76,SSW,202,6.4,10.0,85,0.00,,,0.00,WUHU21636XXSP,2015-03-03 21:04:00,
2015-03-03 16:09:00,49.6,45.1,28.77,SW,225,4.9,14.5,85,0.00,,,0.00,WUHU21636XXSP,2015-03-03 21:09:00,
2015-03-03 16:14:00,49.6,45.1,28.76,SW,225,5.5,14.5,85,0.00,,,0.00,WUHU21636XXSP,2015-03-03 21:14:00,
2015-03-03 16:19:00,49.6,45.1,28.76,WSW,247,0.0,11.6,85,0.00,,,0.00,WUHU21636XXSP,2015-03-03 21:19:00,
2015-03-03 16:24:00,49.6,45.1,28.77,WNW,292,7.3,10.5,85,0.00,,,0.00,WUHU21636XXSP,2015-03-03 21:24:00,
2015-03-03 16:29:00,49.6,45.1,28.77,SSW,202,2.6,10.5,85,0.00,,,0.00,WUHU21636XXSP,2015-03-03 21:29:00,
2015-03-03 16:34:00,49.8,45.3,28.77,SW,225,5.1,11.6,85,0.00,,,0.00,WUHU21636XXSP,2015-03-03 21:34:00,
2015-03-03 16:39:00,49.8,45.3,28.76,SW,225,2.4,12.5,85,0.00,,,0.00,WUHU21636XXSP,2015-03-03 21:39:00,
2015-03-03 16:44:00,50.0,45.5,28.76,SSW,202,2.2,12.5,85,0.00,,,0.00,WUHU21636XXSP,2015-03-03 21:44:00,
2015-03-03 16:50:00,50.2,45.7,28.76,NW,315,0.0,6.4,85,0.00,,,0.00,WUHU21636XXSP,2015-03-03 21:50:00,
2015-03-03 16:55:00,50.4,45.9,28.76,SW,225,3.8,3.8,85,0.00,,,0.00,WUHU21636XXSP,2015-03-03 21:55:00,
2015-03-03 17:00:00,50.4,45.9,28.77,WSW,247,2.4,11.1,85,0.00,,,0.00,WUHU21636XXSP,2015-03-03 22:00:00,
2015-03-03 17:05:00,50.4,45.9,28.76,WSW,247,0.0,11.1,85,0.00,,,0.00,WUHU21636XXSP,2015-03-03 22:05:00,
2015-03-03 17:10:00,50.4,45.9,28.77,West,270,0.0,8.2,85,0.00,,,0.00,WUHU21636XXSP,2015-03-03 22:10:00,
2015-03-03 17:15:00,50.4,45.9,28.76,WSW,247,0.0,0.0,85,0.00,,,0.00,WUHU21636XXSP,2015-03-03 22:15:00,
2015-03-03 17:20:00,50.4,45.9,28.76,WSW,247,0.0,6.9,85,0.00,,,0.00,WUHU21636XXSP,2015-03-03 22:20:00,
2015-03-03 17:25:00,50.4,45.9,28.77,WNW,292,2.6,6.9,85,0.00,,,0.00,WUHU21636XXSP,2015-03-03 22:25:00,
2015-03-03 17:30:00,50.2,45.7,28.77,West,270,0.0,3.1,85,0.00,,,0.00,WUHU21636XXSP,2015-03-03 22:30:00,
2015-03-03 17:35:00,50.2,45.7,28.77,WNW,292,3.3,3.3,85,0.00,,,0.00,WUHU21636XXSP,2015-03-03 22:35:00,
2015-03-03 17:40:00,50.2,45.7,28.77,NW,315,5.1,5.1,85,0.00,,,0.00,WUHU21636XXSP,2015-03-03 22:40:00,
2015-03-03 17:45:00,49.8,45.3,28.77,NW,315,1.5,8.5,85,0.00,,,0.00,WUHU21636XXSP,2015-03-03 22:45:00,
2015-03-03 17:50:00,49.8,45.3,28.76,NNW,337,0.8,8.5,85,0.00,,,0.00,WUHU21636XXSP,2015-03-03 22:50:00,
2015-03-03 17:55:00,49.8,45.3,28.77,West,270,0.8,1.5,85,0.00,,,0.00,WUHU21636XXSP,2015-03-03 22:55:00,
2015-03-03 18:00:00,49.6,45.1,28.76,West,270,3.1,3.1,85,0.00,,,0.00,WUHU21636XXSP,2015-03-03 23:00:00,
2015-03-03 18:05:00,49.6,45.1,28.77,West,270,2.0,4.9,85,0.00,,,0.00,WUHU21636XXSP,2015-03-03 23:05:00,
2015-03-03 18:10:00,49.5,45.0,28.77,WSW,247,3.8,7.8,85,0.00,,,0.00,WUHU21636XXSP,2015-03-03 23:10:00,
2015-03-03 18:15:00,49.3,44.8,28.77,West,270,0.0,7.8,85,0.00,,,0.00,WUHU21636XXSP,2015-03-03 23:15:00,
2015-03-03 18:20:00,49.1,44.6,28.78,WSW,247,6.7,6.9,85,0.00,,,0.00,WUHU21636XXSP,2015-03-03 23:20:00,
2015-03-03 18:25:00,49.1,44.6,28.78,West,270,0.0,6.9,85,0.00,,,0.00,WUHU21636XXSP,2015-03-03 23:25:00,
2015-03-03 18:30:00,48.9,44.4,28.77,West,270,0.0,6.7,85,0.00,,,0.00,WUHU21636XXSP,2015-03-03 23:30:00,
2015-03-03 18:35:00,48.9,44.4,28.77,West,270,0.0,2.0,86,0.00,,,0.00,WUHU21636XXSP,2015-03-03 23:35:00,
2015-03-03 18:40:00,48.9,44.4,28.78,West,270,0.0,0.0,86,0.00,,,0.00,WUHU21636XXSP,2015-03-03 23:40:00,
2015-03-03 18:45:00,48.9,44.4,28.78,SW,225,0.0,0.0,86,0.00,,,0.00,WUHU21636XXSP,2015-03-03 23:45:00,
2015-03-03 18:50:00,48.7,44.6,28.78,SW,225,0.0,0.0,86,0.00,,,0.00,WUHU21636XXSP,2015-03-03 23:50:00,
2015-03-03 18:55:00,48.7,44.6,28.79,SW,225,0.0,0.0,86,0.00,,,0.00,WUHU21636XXSP,2015-03-03 23:55:00,
2015-03-03 19:00:00,48.7,44.6,28.78,SW,225,0.0,0.0,86,0.00,,,0.00,WUHU21636XXSP,2015-03-04 00:00:00,
2015-03-03 19:05:00,48.7,44.6,28.79,SW,225,0.0,0.0,85,0.00,,,0.00,WUHU21636XXSP,2015-03-04 00:05:00,
2015-03-03 19:10:00,48.6,44.1,28.78,SW,225,0.0,0.0,85,0.00,,,0.00,WUHU21636XXSP,2015-03-04 00:10:00,
2015-03-03 19:15:00,48.6,44.1,28.78,SW,225,0.0,0.0,85,0.00,,,0.00,WUHU21636XXSP,2015-03-04 00:15:00,
2015-03-03 19:20:00,48.6,44.1,28.79,SW,225,0.0,0.0,85,0.00,,,0.00,WUHU21636XXSP,2015-03-04 00:20:00,
2015-03-03 19:25:00,48.4,43.9,28.79,SW,225,0.0,0.0,85,0.00,,,0.00,WUHU21636XXSP,2015-03-04 00:25:00,
2015-03-03 19:30:00,48.4,43.9,28.79,SW,225,0.0,0.0,85,0.00,,,0.00,WUHU21636XXSP,2015-03-04 00:30:00,
2015-03-03 19:35:00,48.0,43.7,28.80,SW,225,0.0,0.0,85,0.00,,,0.00,WUHU21636XXSP,2015-03-04 00:35:00,
2015-03-03 19:40:00,48.0,43.7,28.81,SW,225,0.0,0.0,85,0.00,,,0.00,WUHU21636XXSP,2015-03-04 00:40:00,